Addis, LA (70710)

1:19 PM CDT on April 28, 2017 (GMT -0500)
Addis Town Hall | | Change Station

Elev 36 ft 30.36 °N, 91.26 °W | Updated 3 seconds ago

Overcast
Overcast
89.6 °F
Feels Like 100 °F
N
6.0
Wind Variable Wind from WSW

Today
High -- | Low -- °F
--% Chance of Precip.
Yesterday
High -- | Low -- °F
Precip. -- in
Pressure 29.84 in
Visibility 10.0 miles
Clouds Scattered Clouds 3300 ft
Mostly Cloudy 4100 ft
Heat Index 100 °F
Dew Point 75 °F
Humidity 63%
Rainfall 0.00 in
Snow Depth Not available.
6:24 AM 7:41 PM
Waxing Crescent, 8% visible
METAR KBTR 281753Z 18018KT 10SM SCT033 BKN041 31/22 A2984 RMK AO2 PK WND 18028/1657 SLP104 T03110222 10311 20256 50004
Pressure 29.84 in
Visibility 10.0 miles
Clouds Scattered Clouds 3300 ft
Mostly Cloudy 4100 ft
Heat Index 100 °F
Dew Point 75 °F
Humidity 63%
Rainfall 0.00 in
Snow Depth Not available.
6:24 AM 7:41 PM
Waxing Crescent, 8% visible
METAR KBTR 281753Z 18018KT 10SM SCT033 BKN041 31/22 A2984 RMK AO2 PK WND 18028/1657 SLP104 T03110222 10311 20256 50004

Get Severe Weather Alerts

Thanks for signing up!

Be on the lookout for a verification email in your inbox.

You'll start receiving the daily forecast at 8 AM.

×

10-Day Weather Forecast

Almanac

Astronomy

Apr. 28, 2017 Rise Set
Actual Time
Civil Twilight
Nautical Twilight
Astronomical Twilight
Moon
Length of Visible Light
Length of Day
Tomorrow will be .
, % of the Moon is Illuminated

Today's Extremes

State Highs State Lows

Community

WunderPhotos

WunderBlog® & News

Nearby

Air Quality

  Air Quality AQ Index Pollutant
Not available.

Snow Depth

Station Depth Elevation

Earthquake Activity

City Distance Mag. Time & Date
Minimum magnitude displayed is 2.5.

Coastal Water Temperatures

Place Temperature

Stations

Nearby Weather Stations

Station Location Temp. Windchill Dew Point Humidity Wind Precip. Elev Updated Type
                   

Watches & Warnings

There are currently no watches in effect.